sensor_id;sensor_type;location;lat;lon;timestamp;pressure;altitude;pressure_sealevel;temperature;humidity
75991;BME280;64673;52.276;10.560;2024-01-07T00:02:13;100884.09;;;-1.48;100.00
75991;BME280;64673;52.276;10.560;2024-01-07T00:04:40;100888.13;;;-1.52;100.00
75991;BME280;64673;52.276;10.560;2024-01-07T00:07:05;100891.03;;;-1.47;100.00
75991;BME280;64673;52.276;10.560;2024-01-07T00:09:30;100896.69;;;-1.50;100.00
75991;BME280;64673;52.276;10.560;2024-01-07T00:11:56;100897.22;;;-1.54;100.00
75991;BME280;64673;52.276;10.560;2024-01-07T00:14:21;100897.06;;;-1.53;100.00
75991;BME280;64673;52.276;10.560;2024-01-07T00:16:46;100892.22;;;-1.64;100.00
75991;BME280;64673;52.276;10.560;2024-01-07T00:19:12;100904.34;;;-1.55;100.00
75991;BME280;64673;52.276;10.560;2024-01-07T00:21:37;100910.00;;;-1.58;100.00
75991;BME280;64673;52.276;10.560;2024-01-07T00:24:02;100912.03;;;-1.60;100.00
75991;BME280;64673;52.276;10.560;2024-01-07T00:26:28;100914.03;;;-1.62;100.00
75991;BME280;64673;52.276;10.560;2024-01-07T00:28:53;100907.63;;;-1.67;100.00
75991;BME280;64673;52.276;10.560;2024-01-07T00:31:18;100910.38;;;-1.61;100.00
75991;BME280;64673;52.276;10.560;2024-01-07T00:33:44;100906.63;;;-1.66;100.00
75991;BME280;64673;52.276;10.560;2024-01-07T00:36:09;100913.56;;;-1.65;100.00
75991;BME280;64673;52.276;10.560;2024-01-07T00:38:34;100917.56;;;-1.69;100.00
75991;BME280;64673;52.276;10.560;2024-01-07T00:41:00;100918.00;;;-1.66;100.00
75991;BME280;64673;52.276;10.560;2024-01-07T00:43:25;100915.66;;;-1.61;100.00
75991;BME280;64673;52.276;10.560;2024-01-07T00:45:50;100920.13;;;-1.61;100.00
75991;BME280;64673;52.276;10.560;2024-01-07T00:48:16;100924.22;;;-1.59;100.00
75991;BME280;64673;52.276;10.560;2024-01-07T00:50:42;100921.31;;;-1.64;100.00
75991;BME280;64673;52.276;10.560;2024-01-07T00:53:07;100940.09;;;-1.59;100.00
75991;BME280;64673;52.276;10.560;2024-01-07T00:55:33;100939.09;;;-1.72;100.00
75991;BME280;64673;52.276;10.560;2024-01-07T00:58:00;100940.09;;;-1.73;100.00
75991;BME280;64673;52.276;10.560;2024-01-07T01:00:25;100947.47;;;-1.69;100.00
75991;BME280;64673;52.276;10.560;2024-01-07T01:02:51;100942.63;;;-1.65;100.00
75991;BME280;64673;52.276;10.560;2024-01-07T01:05:17;100951.56;;;-1.81;100.00
75991;BME280;64673;52.276;10.560;2024-01-07T01:07:42;100947.44;;;-1.83;100.00
75991;BME280;64673;52.276;10.560;2024-01-07T01:10:08;100954.56;;;-1.84;100.00
75991;BME280;64673;52.276;10.560;2024-01-07T01:12:33;100955.47;;;-1.77;100.00
75991;BME280;64673;52.276;10.560;2024-01-07T01:14:59;100960.13;;;-1.79;100.00
75991;BME280;64673;52.276;10.560;2024-01-07T01:17:24;100967.78;;;-1.84;100.00
75991;BME280;64673;52.276;10.560;2024-01-07T01:19:49;100971.75;;;-1.88;100.00
75991;BME280;64673;52.276;10.560;2024-01-07T01:22:14;100972.59;;;-1.88;100.00
75991;BME280;64673;52.276;10.560;2024-01-07T01:24:40;100971.41;;;-1.85;100.00
75991;BME280;64673;52.276;10.560;2024-01-07T01:27:05;100964.13;;;-1.83;100.00
75991;BME280;64673;52.276;10.560;2024-01-07T01:29:30;100974.47;;;-1.96;100.00
75991;BME280;64673;52.276;10.560;2024-01-07T01:31:56;100982.59;;;-1.98;100.00
75991;BME280;64673;52.276;10.560;2024-01-07T01:34:22;100992.34;;;-1.98;100.00
75991;BME280;64673;52.276;10.560;2024-01-07T01:36:47;100987.53;;;-1.95;100.00
75991;BME280;64673;52.276;10.560;2024-01-07T01:39:12;101000.41;;;-1.92;100.00
75991;BME280;64673;52.276;10.560;2024-01-07T01:41:38;100992.00;;;-1.95;100.00
75991;BME280;64673;52.276;10.560;2024-01-07T01:44:04;101006.94;;;-1.88;100.00
75991;BME280;64673;52.276;10.560;2024-01-07T01:46:30;101003.22;;;-1.93;100.00
75991;BME280;64673;52.276;10.560;2024-01-07T01:48:55;101009.84;;;-1.97;100.00
75991;BME280;64673;52.276;10.560;2024-01-07T01:51:21;101017.19;;;-1.85;100.00
75991;BME280;64673;52.276;10.560;2024-01-07T01:53:48;101011.47;;;-1.96;100.00
75991;BME280;64673;52.276;10.560;2024-01-07T01:56:16;101016.78;;;-1.96;100.00
75991;BME280;64673;52.276;10.560;2024-01-07T01:58:42;101022.78;;;-2.02;100.00
75991;BME280;64673;52.276;10.560;2024-01-07T02:01:07;101021.47;;;-2.06;100.00
75991;BME280;64673;52.276;10.560;2024-01-07T02:03:33;101017.28;;;-2.01;100.00
75991;BME280;64673;52.276;10.560;2024-01-07T02:05:58;101032.28;;;-1.93;100.00
75991;BME280;64673;52.276;10.560;2024-01-07T02:08:25;101024.38;;;-2.01;100.00
75991;BME280;64673;52.276;10.560;2024-01-07T02:10:50;101023.69;;;-1.95;100.00
75991;BME280;64673;52.276;10.560;2024-01-07T02:13:15;101027.22;;;-2.03;100.00
75991;BME280;64673;52.276;10.560;2024-01-07T02:15:41;101028.75;;;-2.08;100.00
75991;BME280;64673;52.276;10.560;2024-01-07T02:18:06;101041.69;;;-2.13;100.00
75991;BME280;64673;52.276;10.560;2024-01-07T02:20:32;101038.31;;;-2.07;100.00
75991;BME280;64673;52.276;10.560;2024-01-07T02:22:57;101032.75;;;-2.12;100.00
75991;BME280;64673;52.276;10.560;2024-01-07T02:25:24;101037.72;;;-2.17;100.00
75991;BME280;64673;52.276;10.560;2024-01-07T02:27:49;101043.84;;;-2.17;100.00
75991;BME280;64673;52.276;10.560;2024-01-07T02:30:14;101041.06;;;-2.24;100.00
75991;BME280;64673;52.276;10.560;2024-01-07T02:32:40;101044.66;;;-2.16;100.00
75991;BME280;64673;52.276;10.560;2024-01-07T02:35:05;101045.47;;;-2.16;100.00
75991;BME280;64673;52.276;10.560;2024-01-07T02:37:31;101041.31;;;-2.10;100.00
75991;BME280;64673;52.276;10.560;2024-01-07T02:39:56;101050.94;;;-2.17;100.00
75991;BME280;64673;52.276;10.560;2024-01-07T02:42:21;101049.28;;;-2.18;100.00
75991;BME280;64673;52.276;10.560;2024-01-07T02:44:47;101054.22;;;-2.15;100.00
75991;BME280;64673;52.276;10.560;2024-01-07T02:47:12;101060.44;;;-2.08;100.00
75991;BME280;64673;52.276;10.560;2024-01-07T02:49:37;101060.78;;;-2.11;100.00
75991;BME280;64673;52.276;10.560;2024-01-07T02:52:03;101058.81;;;-2.09;100.00
75991;BME280;64673;52.276;10.560;2024-01-07T02:54:28;101066.44;;;-2.14;100.00
75991;BME280;64673;52.276;10.560;2024-01-07T02:56:54;101067.38;;;-2.07;100.00
75991;BME280;64673;52.276;10.560;2024-01-07T02:59:19;101079.66;;;-2.14;100.00
75991;BME280;64673;52.276;10.560;2024-01-07T03:01:44;101082.97;;;-2.21;100.00
75991;BME280;64673;52.276;10.560;2024-01-07T03:04:11;101082.00;;;-2.19;100.00
75991;BME280;64673;52.276;10.560;2024-01-07T03:06:37;101075.72;;;-2.18;100.00
75991;BME280;64673;52.276;10.560;2024-01-07T03:09:03;101076.03;;;-2.22;100.00
75991;BME280;64673;52.276;10.560;2024-01-07T03:11:28;101083.13;;;-2.14;100.00
75991;BME280;64673;52.276;10.560;2024-01-07T03:13:55;101083.13;;;-2.14;100.00
75991;BME280;64673;52.276;10.560;2024-01-07T03:16:24;101090.41;;;-2.16;100.00
75991;BME280;64673;52.276;10.560;2024-01-07T03:18:49;101092.06;;;-2.15;100.00
75991;BME280;64673;52.276;10.560;2024-01-07T03:21:18;101102.13;;;-2.18;100.00
75991;BME280;64673;52.276;10.560;2024-01-07T03:23:45;101099.50;;;-2.18;100.00
75991;BME280;64673;52.276;10.560;2024-01-07T03:26:11;101097.56;;;-2.25;100.00
75991;BME280;64673;52.276;10.560;2024-01-07T03:28:36;101099.38;;;-2.25;100.00
75991;BME280;64673;52.276;10.560;2024-01-07T03:31:15;101098.84;;;-2.21;100.00
75991;BME280;64673;52.276;10.560;2024-01-07T03:33:41;101106.75;;;-2.21;100.00
75991;BME280;64673;52.276;10.560;2024-01-07T03:36:08;101105.09;;;-2.13;100.00
75991;BME280;64673;52.276;10.560;2024-01-07T03:38:34;101098.22;;;-2.23;100.00
75991;BME280;64673;52.276;10.560;2024-01-07T03:40:59;101104.59;;;-2.17;100.00
75991;BME280;64673;52.276;10.560;2024-01-07T03:43:25;101102.84;;;-2.25;100.00
75991;BME280;64673;52.276;10.560;2024-01-07T03:45:50;101095.03;;;-2.18;100.00
75991;BME280;64673;52.276;10.560;2024-01-07T03:48:15;101109.06;;;-2.17;100.00
75991;BME280;64673;52.276;10.560;2024-01-07T03:50:41;101109.78;;;-2.24;100.00
75991;BME280;64673;52.276;10.560;2024-01-07T03:53:06;101119.63;;;-2.17;100.00
75991;BME280;64673;52.276;10.560;2024-01-07T03:55:31;101115.38;;;-2.27;100.00
75991;BME280;64673;52.276;10.560;2024-01-07T03:57:57;101121.78;;;-2.21;100.00
75991;BME280;64673;52.276;10.560;2024-01-07T04:00:22;101118.69;;;-2.25;100.00
75991;BME280;64673;52.276;10.560;2024-01-07T04:02:47;101119.69;;;-2.26;100.00
75991;BME280;64673;52.276;10.560;2024-01-07T04:05:13;101129.53;;;-2.19;100.00
75991;BME280;64673;52.276;10.560;2024-01-07T04:07:40;101126.56;;;-2.16;100.00
75991;BME280;64673;52.276;10.560;2024-01-07T04:10:06;101131.53;;;-2.13;100.00
75991;BME280;64673;52.276;10.560;2024-01-07T04:12:31;101140.78;;;-2.17;100.00
75991;BME280;64673;52.276;10.560;2024-01-07T04:14:56;101139.13;;;-2.18;100.00
75991;BME280;64673;52.276;10.560;2024-01-07T04:17:23;101147.91;;;-2.26;100.00
75991;BME280;64673;52.276;10.560;2024-01-07T04:19:48;101147.75;;;-2.33;100.00
75991;BME280;64673;52.276;10.560;2024-01-07T04:22:14;101150.94;;;-2.37;100.00
75991;BME280;64673;52.276;10.560;2024-01-07T04:24:42;101161.16;;;-2.34;100.00
75991;BME280;64673;52.276;10.560;2024-01-07T04:27:08;101146.81;;;-2.40;100.00
75991;BME280;64673;52.276;10.560;2024-01-07T04:29:33;101161.13;;;-2.26;100.00
75991;BME280;64673;52.276;10.560;2024-01-07T04:31:59;101163.59;;;-2.25;100.00
75991;BME280;64673;52.276;10.560;2024-01-07T04:34:24;101162.44;;;-2.30;100.00
75991;BME280;64673;52.276;10.560;2024-01-07T04:36:50;101148.13;;;-2.36;100.00
75991;BME280;64673;52.276;10.560;2024-01-07T04:39:15;101160.31;;;-2.27;100.00
75991;BME280;64673;52.276;10.560;2024-01-07T04:41:40;101175.66;;;-2.30;100.00
75991;BME280;64673;52.276;10.560;2024-01-07T04:44:06;101171.53;;;-2.33;100.00
75991;BME280;64673;52.276;10.560;2024-01-07T04:46:34;101182.50;;;-2.44;100.00
75991;BME280;64673;52.276;10.560;2024-01-07T04:49:00;101181.84;;;-2.46;100.00
75991;BME280;64673;52.276;10.560;2024-01-07T04:51:25;101186.75;;;-2.43;100.00
75991;BME280;64673;52.276;10.560;2024-01-07T04:53:51;101199.97;;;-2.43;100.00
75991;BME280;64673;52.276;10.560;2024-01-07T04:56:16;101196.31;;;-2.42;100.00
75991;BME280;64673;52.276;10.560;2024-01-07T04:58:41;101192.06;;;-2.51;100.00
75991;BME280;64673;52.276;10.560;2024-01-07T05:01:07;101197.03;;;-2.56;100.00
75991;BME280;64673;52.276;10.560;2024-01-07T05:03:32;101199.00;;;-2.50;100.00
75991;BME280;64673;52.276;10.560;2024-01-07T05:05:57;101198.66;;;-2.47;100.00
75991;BME280;64673;52.276;10.560;2024-01-07T05:08:22;101195.34;;;-2.41;100.00
75991;BME280;64673;52.276;10.560;2024-01-07T05:10:48;101200.97;;;-2.52;100.00
75991;BME280;64673;52.276;10.560;2024-01-07T05:13:13;101206.13;;;-2.59;100.00
75991;BME280;64673;52.276;10.560;2024-01-07T05:15:38;101210.91;;;-2.70;100.00
75991;BME280;64673;52.276;10.560;2024-01-07T05:18:07;101213.41;;;-2.69;98.49
75991;BME280;64673;52.276;10.560;2024-01-07T05:20:33;101217.19;;;-2.71;99.73
75991;BME280;64673;52.276;10.560;2024-01-07T05:22:59;101215.38;;;-2.79;99.49
75991;BME280;64673;52.276;10.560;2024-01-07T05:25:24;101226.75;;;-2.70;100.00
75991;BME280;64673;52.276;10.560;2024-01-07T05:27:49;101227.75;;;-2.79;100.00
75991;BME280;64673;52.276;10.560;2024-01-07T05:30:14;101223.16;;;-2.77;99.53
75991;BME280;64673;52.276;10.560;2024-01-07T05:32:40;101231.56;;;-2.82;99.39
75991;BME280;64673;52.276;10.560;2024-01-07T05:35:05;101237.50;;;-2.88;100.00
75991;BME280;64673;52.276;10.560;2024-01-07T05:37:31;101237.81;;;-2.91;100.00
75991;BME280;64673;52.276;10.560;2024-01-07T05:39:56;101235.03;;;-2.98;100.00
75991;BME280;64673;52.276;10.560;2024-01-07T05:42:21;101235.34;;;-3.01;100.00
75991;BME280;64673;52.276;10.560;2024-01-07T05:44:47;101239.97;;;-3.03;99.71
75991;BME280;64673;52.276;10.560;2024-01-07T05:47:12;101237.50;;;-3.04;99.53
75991;BME280;64673;52.276;10.560;2024-01-07T05:49:37;101248.56;;;-3.09;99.56
75991;BME280;64673;52.276;10.560;2024-01-07T05:52:03;101242.94;;;-3.14;99.55
75991;BME280;64673;52.276;10.560;2024-01-07T05:54:28;101248.88;;;-3.20;99.50
75991;BME280;64673;52.276;10.560;2024-01-07T05:56:54;101257.09;;;-3.23;100.00
75991;BME280;64673;52.276;10.560;2024-01-07T05:59:20;101268.63;;;-3.24;100.00
75991;BME280;64673;52.276;10.560;2024-01-07T06:01:45;101260.25;;;-3.19;99.71
75991;BME280;64673;52.276;10.560;2024-01-07T06:04:10;101276.38;;;-3.22;99.18
75991;BME280;64673;52.276;10.560;2024-01-07T06:06:36;101291.91;;;-3.19;99.42
75991;BME280;64673;52.276;10.560;2024-01-07T06:09:01;101286.78;;;-3.21;99.03
75991;BME280;64673;52.276;10.560;2024-01-07T06:11:27;101300.28;;;-3.24;98.63
75991;BME280;64673;52.276;10.560;2024-01-07T06:13:53;101296.50;;;-3.29;100.00
75991;BME280;64673;52.276;10.560;2024-01-07T06:16:18;101302.91;;;-3.32;99.97
75991;BME280;64673;52.276;10.560;2024-01-07T06:18:43;101294.84;;;-3.30;99.91
75991;BME280;64673;52.276;10.560;2024-01-07T06:21:09;101307.34;;;-3.33;100.00
75991;BME280;64673;52.276;10.560;2024-01-07T06:23:34;101306.53;;;-3.33;100.00
75991;BME280;64673;52.276;10.560;2024-01-07T06:26:03;101319.03;;;-3.35;100.00
75991;BME280;64673;52.276;10.560;2024-01-07T06:28:28;101321.00;;;-3.37;100.00
75991;BME280;64673;52.276;10.560;2024-01-07T06:30:53;101325.97;;;-3.34;100.00
75991;BME280;64673;52.276;10.560;2024-01-07T06:33:19;101324.97;;;-3.41;100.00
75991;BME280;64673;52.276;10.560;2024-01-07T06:35:45;101322.66;;;-3.44;100.00
75991;BME280;64673;52.276;10.560;2024-01-07T06:38:11;101330.88;;;-3.47;100.00
75991;BME280;64673;52.276;10.560;2024-01-07T06:40:36;101343.06;;;-3.46;100.00
75991;BME280;64673;52.276;10.560;2024-01-07T06:43:02;101350.03;;;-3.37;100.00
75991;BME280;64673;52.276;10.560;2024-01-07T06:45:27;101346.91;;;-3.41;99.58
75991;BME280;64673;52.276;10.560;2024-01-07T06:47:52;101348.38;;;-3.38;100.00
75991;BME280;64673;52.276;10.560;2024-01-07T06:50:18;101361.56;;;-3.38;100.00
75991;BME280;64673;52.276;10.560;2024-01-07T06:52:45;101362.56;;;-3.39;100.00
75991;BME280;64673;52.276;10.560;2024-01-07T06:55:11;101364.41;;;-3.32;99.60
75991;BME280;64673;52.276;10.560;2024-01-07T06:57:36;101367.53;;;-3.28;99.50
75991;BME280;64673;52.276;10.560;2024-01-07T07:00:02;101377.16;;;-3.19;99.56
75991;BME280;64673;52.276;10.560;2024-01-07T07:02:28;101378.59;;;-3.24;99.53
75991;BME280;64673;52.276;10.560;2024-01-07T07:04:53;101385.38;;;-3.14;98.90
75991;BME280;64673;52.276;10.560;2024-01-07T07:07:18;101382.06;;;-3.16;100.00
75991;BME280;64673;52.276;10.560;2024-01-07T07:09:44;101395.13;;;-3.14;99.55
75991;BME280;64673;52.276;10.560;2024-01-07T07:12:11;101396.63;;;-3.12;99.82
75991;BME280;64673;52.276;10.560;2024-01-07T07:14:37;101404.16;;;-3.17;99.05
75991;BME280;64673;52.276;10.560;2024-01-07T07:17:02;101406.19;;;-3.11;100.00
75991;BME280;64673;52.276;10.560;2024-01-07T07:19:28;101407.19;;;-3.04;98.77
75991;BME280;64673;52.276;10.560;2024-01-07T07:21:53;101418.72;;;-3.05;99.88
75991;BME280;64673;52.276;10.560;2024-01-07T07:24:19;101415.09;;;-3.04;100.00
75991;BME280;64673;52.276;10.560;2024-01-07T07:26:44;101420.22;;;-3.02;99.11
75991;BME280;64673;52.276;10.560;2024-01-07T07:29:09;101426.34;;;-3.02;98.96
75991;BME280;64673;52.276;10.560;2024-01-07T07:31:35;101431.94;;;-2.97;98.81
75991;BME280;64673;52.276;10.560;2024-01-07T07:34:04;101419.25;;;-2.93;98.20
75991;BME280;64673;52.276;10.560;2024-01-07T07:36:30;101409.81;;;-3.04;98.64
75991;BME280;64673;52.276;10.560;2024-01-07T07:38:55;101435.09;;;-2.93;99.59
75991;BME280;64673;52.276;10.560;2024-01-07T07:41:20;101430.47;;;-2.99;99.67
75991;BME280;64673;52.276;10.560;2024-01-07T07:43:46;101440.88;;;-2.89;99.68
75991;BME280;64673;52.276;10.560;2024-01-07T07:46:11;101445.19;;;-2.80;99.65
75991;BME280;64673;52.276;10.560;2024-01-07T07:48:37;101452.44;;;-2.82;99.05
75991;BME280;64673;52.276;10.560;2024-01-07T07:51:03;101451.16;;;-2.70;99.07
75991;BME280;64673;52.276;10.560;2024-01-07T07:53:28;101457.75;;;-2.74;99.08
75991;BME280;64673;52.276;10.560;2024-01-07T07:55:53;101460.75;;;-2.69;99.25
75991;BME280;64673;52.276;10.560;2024-01-07T07:58:19;101462.53;;;-2.78;97.80
75991;BME280;64673;52.276;10.560;2024-01-07T08:00:45;101461.72;;;-2.78;100.00
75991;BME280;64673;52.276;10.560;2024-01-07T08:03:10;101474.63;;;-2.67;99.49
75991;BME280;64673;52.276;10.560;2024-01-07T08:05:35;101470.94;;;-2.74;99.37
75991;BME280;64673;52.276;10.560;2024-01-07T08:08:01;101481.56;;;-2.66;99.35
75991;BME280;64673;52.276;10.560;2024-01-07T08:10:26;101486.47;;;-2.71;99.74
75991;BME280;64673;52.276;10.560;2024-01-07T08:12:53;101486.16;;;-2.68;99.10
75991;BME280;64673;52.276;10.560;2024-01-07T08:15:19;101475.78;;;-2.62;100.00
75991;BME280;64673;52.276;10.560;2024-01-07T08:17:44;101482.88;;;-2.54;100.00
75991;BME280;64673;52.276;10.560;2024-01-07T08:20:10;101489.19;;;-2.47;100.00
75991;BME280;64673;52.276;10.560;2024-01-07T08:22:35;101495.47;;;-2.48;100.00
75991;BME280;64673;52.276;10.560;2024-01-07T08:25:01;101484.06;;;-2.48;99.40
75991;BME280;64673;52.276;10.560;2024-01-07T08:27:27;101494.63;;;-2.40;100.00
75991;BME280;64673;52.276;10.560;2024-01-07T08:29:53;101498.63;;;-2.36;99.66
75991;BME280;64673;52.276;10.560;2024-01-07T08:32:18;101490.69;;;-2.36;99.14
75991;BME280;64673;52.276;10.560;2024-01-07T08:34:44;101496.81;;;-2.36;97.71
75991;BME280;64673;52.276;10.560;2024-01-07T08:37:10;101495.31;;;-2.30;98.62
75991;BME280;64673;52.276;10.560;2024-01-07T08:39:36;101505.06;;;-2.31;99.73
75991;BME280;64673;52.276;10.560;2024-01-07T08:42:01;101514.78;;;-2.31;99.46
75991;BME280;64673;52.276;10.560;2024-01-07T08:44:28;101506.41;;;-2.27;98.60
75991;BME280;64673;52.276;10.560;2024-01-07T08:46:54;101514.31;;;-2.27;99.30
75991;BME280;64673;52.276;10.560;2024-01-07T08:49:19;101518.94;;;-2.29;98.63
75991;BME280;64673;52.276;10.560;2024-01-07T08:51:44;101516.81;;;-2.33;99.93
75991;BME280;64673;52.276;10.560;2024-01-07T08:54:10;101521.59;;;-2.21;100.00
75991;BME280;64673;52.276;10.560;2024-01-07T08:56:36;101520.59;;;-2.28;99.56
75991;BME280;64673;52.276;10.560;2024-01-07T08:59:01;101520.13;;;-2.23;99.95
75991;BME280;64673;52.276;10.560;2024-01-07T09:01:26;101526.41;;;-2.16;100.00
75991;BME280;64673;52.276;10.560;2024-01-07T09:03:52;101530.50;;;-2.22;98.24
75991;BME280;64673;52.276;10.560;2024-01-07T09:06:17;101536.97;;;-2.16;100.00
75991;BME280;64673;52.276;10.560;2024-01-07T09:08:42;101528.72;;;-2.13;99.00
75991;BME280;64673;52.276;10.560;2024-01-07T09:11:08;101531.03;;;-2.10;100.00
75991;BME280;64673;52.276;10.560;2024-01-07T09:13:36;101536.16;;;-2.08;99.72
75991;BME280;64673;52.276;10.560;2024-01-07T09:16:01;101551.03;;;-2.07;99.54
75991;BME280;64673;52.276;10.560;2024-01-07T09:18:27;101554.00;;;-2.02;100.00
75991;BME280;64673;52.276;10.560;2024-01-07T09:20:52;101558.28;;;-2.01;99.52
75991;BME280;64673;52.276;10.560;2024-01-07T09:23:18;101554.34;;;-1.89;100.00
75991;BME280;64673;52.276;10.560;2024-01-07T09:25:43;101555.16;;;-1.89;100.00
75991;BME280;64673;52.276;10.560;2024-01-07T09:28:08;101548.72;;;-1.86;100.00
75991;BME280;64673;52.276;10.560;2024-01-07T09:30:34;101561.94;;;-1.86;100.00
75991;BME280;64673;52.276;10.560;2024-01-07T09:32:59;101558.84;;;-1.81;99.99
75991;BME280;64673;52.276;10.560;2024-01-07T09:35:24;101560.28;;;-1.87;99.22
75991;BME280;64673;52.276;10.560;2024-01-07T09:37:50;101556.97;;;-1.89;100.00
75991;BME280;64673;52.276;10.560;2024-01-07T09:40:19;101561.28;;;-1.88;100.00
75991;BME280;64673;52.276;10.560;2024-01-07T09:42:45;101566.56;;;-1.80;100.00
75991;BME280;64673;52.276;10.560;2024-01-07T09:45:12;101564.44;;;-1.68;100.00
75991;BME280;64673;52.276;10.560;2024-01-07T09:47:39;101567.59;;;-1.73;100.00
75991;BME280;64673;52.276;10.560;2024-01-07T09:50:06;101568.25;;;-1.71;98.93
75991;BME280;64673;52.276;10.560;2024-01-07T09:52:33;101565.25;;;-1.92;100.00
75991;BME280;64673;52.276;10.560;2024-01-07T09:55:02;101573.00;;;-1.91;100.00
75991;BME280;64673;52.276;10.560;2024-01-07T09:57:28;101564.75;;;-1.79;100.00
75991;BME280;64673;52.276;10.560;2024-01-07T09:59:54;101571.38;;;-1.67;100.00
75991;BME280;64673;52.276;10.560;2024-01-07T10:02:20;101563.94;;;-1.88;98.53
75991;BME280;64673;52.276;10.560;2024-01-07T10:04:47;101572.88;;;-1.81;99.69
75991;BME280;64673;52.276;10.560;2024-01-07T10:07:13;101573.19;;;-1.76;99.87
75991;BME280;64673;52.276;10.560;2024-01-07T10:09:40;101574.06;;;-1.59;99.77
75991;BME280;64673;52.276;10.560;2024-01-07T10:12:07;101575.03;;;-1.60;99.64
75991;BME280;64673;52.276;10.560;2024-01-07T10:14:33;101570.38;;;-1.58;99.41
75991;BME280;64673;52.276;10.560;2024-01-07T10:16:59;101570.72;;;-1.69;99.28
75991;BME280;64673;52.276;10.560;2024-01-07T10:19:24;101577.50;;;-1.59;99.80
75991;BME280;64673;52.276;10.560;2024-01-07T10:22:03;101577.16;;;-1.64;98.10
75991;BME280;64673;52.276;10.560;2024-01-07T10:24:36;101577.97;;;-1.79;99.87
75991;BME280;64673;52.276;10.560;2024-01-07T10:27:05;101580.13;;;-1.75;99.67
75991;BME280;64673;52.276;10.560;2024-01-07T10:29:31;101579.16;;;-1.74;100.00
75991;BME280;64673;52.276;10.560;2024-01-07T10:32:00;101579.81;;;-1.64;100.00
75991;BME280;64673;52.276;10.560;2024-01-07T10:34:31;101577.16;;;-1.64;100.00
75991;BME280;64673;52.276;10.560;2024-01-07T10:36:59;101576.16;;;-1.47;100.00
75991;BME280;64673;52.276;10.560;2024-01-07T10:39:25;101572.38;;;-1.60;99.47
75991;BME280;64673;52.276;10.560;2024-01-07T10:41:51;101586.44;;;-1.60;100.00
75991;BME280;64673;52.276;10.560;2024-01-07T10:44:22;101584.13;;;-1.63;99.95
75991;BME280;64673;52.276;10.560;2024-01-07T10:46:48;101580.13;;;-1.59;99.34
75991;BME280;64673;52.276;10.560;2024-01-07T10:49:19;101587.75;;;-1.64;99.17
75991;BME280;64673;52.276;10.560;2024-01-07T10:51:56;101582.47;;;-1.64;99.80
75991;BME280;64673;52.276;10.560;2024-01-07T10:54:28;101577.00;;;-1.54;99.35
75991;BME280;64673;52.276;10.560;2024-01-07T10:57:39;101587.75;;;-1.48;100.00
75991;BME280;64673;52.276;10.560;2024-01-07T10:59:45;101583.78;;;-1.43;99.60
75991;BME280;64673;52.276;10.560;2024-01-07T11:02:11;101584.13;;;-1.38;100.00
75991;BME280;64673;52.276;10.560;2024-01-07T11:05:05;101577.16;;;-1.31;100.00
75991;BME280;64673;52.276;10.560;2024-01-07T11:07:35;101586.75;;;-1.22;99.93
75991;BME280;64673;52.276;10.560;2024-01-07T11:10:12;101578.16;;;-1.32;99.54
75991;BME280;64673;52.276;10.560;2024-01-07T11:12:38;101543.44;;;-1.45;99.20
75991;BME280;64673;52.276;10.560;2024-01-07T11:15:04;101566.88;;;-1.26;100.00
75991;BME280;64673;52.276;10.560;2024-01-07T11:19:59;101569.34;;;-1.08;98.20
75991;BME280;64673;52.276;10.560;2024-01-07T11:24:58;101576.81;;;-1.12;100.00
75991;BME280;64673;52.276;10.560;2024-01-07T11:27:29;101575.66;;;-1.18;100.00
75991;BME280;64673;52.276;10.560;2024-01-07T11:30:03;101574.13;;;-1.04;98.97
75991;BME280;64673;52.276;10.560;2024-01-07T11:32:33;101575.31;;;-1.06;100.00
75991;BME280;64673;52.276;10.560;2024-01-07T11:35:00;101576.28;;;-0.99;99.03
75991;BME280;64673;52.276;10.560;2024-01-07T11:37:25;101570.66;;;-0.96;100.00
75991;BME280;64673;52.276;10.560;2024-01-07T11:39:53;101564.00;;;-0.92;99.48
75991;BME280;64673;52.276;10.560;2024-01-07T11:42:20;101570.81;;;-0.90;98.20
75991;BME280;64673;52.276;10.560;2024-01-07T11:44:51;101577.09;;;-0.91;98.33
75991;BME280;64673;52.276;10.560;2024-01-07T11:47:17;101572.16;;;-1.02;98.05
75991;BME280;64673;52.276;10.560;2024-01-07T11:49:43;101579.75;;;-0.99;99.22
75991;BME280;64673;52.276;10.560;2024-01-07T11:52:09;101569.84;;;-0.97;98.77
75991;BME280;64673;52.276;10.560;2024-01-07T11:54:36;101574.97;;;-1.03;99.88
75991;BME280;64673;52.276;10.560;2024-01-07T11:57:02;101576.44;;;-1.01;99.45
75991;BME280;64673;52.276;10.560;2024-01-07T11:59:29;101578.47;;;-1.11;98.44
75991;BME280;64673;52.276;10.560;2024-01-07T12:01:54;101579.44;;;-1.12;99.63
75991;BME280;64673;52.276;10.560;2024-01-07T12:04:20;101578.13;;;-1.24;100.00
75991;BME280;64673;52.276;10.560;2024-01-07T12:06:46;101576.97;;;-1.14;100.00
75991;BME280;64673;52.276;10.560;2024-01-07T12:09:12;101580.78;;;-1.08;100.00
75991;BME280;64673;52.276;10.560;2024-01-07T12:11:39;101573.84;;;-1.17;100.00
75991;BME280;64673;52.276;10.560;2024-01-07T12:14:06;101571.50;;;-1.12;100.00
75991;BME280;64673;52.276;10.560;2024-01-07T12:16:31;101572.81;;;-1.00;100.00
75991;BME280;64673;52.276;10.560;2024-01-07T12:18:57;101570.47;;;-0.95;100.00
75991;BME280;64673;52.276;10.560;2024-01-07T12:21:22;101567.84;;;-1.03;100.00
75991;BME280;64673;52.276;10.560;2024-01-07T12:23:49;101565.84;;;-0.93;100.00
75991;BME280;64673;52.276;10.560;2024-01-07T12:26:19;101568.16;;;-0.90;100.00
75991;BME280;64673;52.276;10.560;2024-01-07T12:28:52;101576.81;;;-1.12;100.00
75991;BME280;64673;52.276;10.560;2024-01-07T12:31:18;101581.44;;;-1.06;100.00
75991;BME280;64673;52.276;10.560;2024-01-07T12:33:43;101581.25;;;-0.96;100.00